Time;durP1;ratioP1;P1;durP2;ratioP2;P2;SDS_P1;SDS_P2;PMS_P1;PMS_P2;Temp;Humidity;BMP_temperature;BMP_pressure;BME280_temperature;BME280_humidity;BME280_pressure;Samples;Min_cycle;Max_cycle;Signal;HPM_P1;HPM_P2
2022/12/28 00:01:49;;;;;;;4.78;2.95;;;;;;;;;;5094951;28;20282;-67
2022/12/28 00:04:16;;;;;;;8.45;2.47;;;;;;;;;;5094885;28;20286;-67
2022/12/28 00:06:44;;;;;;;4.63;2.28;;;;;;;;;;5095143;28;20191;-67
2022/12/28 00:09:12;;;;;;;2.60;2.40;;;;;;;;;;5094958;28;20558;-67
2022/12/28 00:11:39;;;;;;;3.53;2.20;;;;;;;;;;5094967;28;20188;-67
2022/12/28 00:14:07;;;;;;;4.95;2.25;;;;;;;;;;5094812;28;20198;-68
2022/12/28 00:16:35;;;;;;;6.83;2.30;;;;;;;;;;5094568;28;20220;-67
2022/12/28 00:19:03;;;;;;;3.97;2.30;;;;;;;;;;5094911;28;20549;-67
2022/12/28 00:21:30;;;;;;;4.77;2.40;;;;;;;;;;5094753;28;20619;-67
2022/12/28 00:23:58;;;;;;;2.63;2.30;;;;;;;;;;5094729;28;20538;-68
2022/12/28 00:26:25;;;;;;;2.67;2.47;;;;;;;;;;5094557;28;20485;-68
2022/12/28 00:28:52;;;;;;;3.90;2.58;;;;;;;;;;5094481;28;20191;-68
2022/12/28 00:31:20;;;;;;;3.53;1.87;;;;;;;;;;5094874;28;20278;-68
2022/12/28 00:33:47;;;;;;;6.45;2.38;;;;;;;;;;5094583;28;20811;-68
2022/12/28 00:36:15;;;;;;;2.63;2.17;;;;;;;;;;5094385;28;20226;-67
2022/12/28 00:38:42;;;;;;;6.60;2.58;;;;;;;;;;5094400;28;20282;-67
2022/12/28 00:41:10;;;;;;;4.13;2.72;;;;;;;;;;5094277;28;20274;-68
2022/12/28 00:43:37;;;;;;;2.83;1.90;;;;;;;;;;5094247;28;20240;-67
2022/12/28 00:46:04;;;;;;;5.10;2.40;;;;;;;;;;5094058;28;20229;-67
2022/12/28 00:48:32;;;;;;;2.65;2.10;;;;;;;;;;5094220;28;20282;-67
2022/12/28 00:51:03;;;;;;;4.60;2.55;;;;;;;;;;5094182;28;20285;-67
2022/12/28 00:53:30;;;;;;;2.40;2.05;;;;;;;;;;5094129;28;20554;-68
2022/12/28 00:56:04;;;;;;;2.15;1.95;;;;;;;;;;5093848;28;20620;-67
2022/12/28 00:58:31;;;;;;;4.45;2.05;;;;;;;;;;5093879;28;20277;-68
2022/12/28 01:00:58;;;;;;;3.60;2.60;;;;;;;;;;5094066;28;20187;-67
2022/12/28 01:03:25;;;;;;;6.88;2.35;;;;;;;;;;5093941;28;20313;-67
2022/12/28 01:05:53;;;;;;;3.97;1.80;;;;;;;;;;5093843;28;20558;-67
2022/12/28 01:08:20;;;;;;;2.67;1.92;;;;;;;;;;5093774;28;20282;-67
2022/12/28 01:10:47;;;;;;;4.90;2.78;;;;;;;;;;5093649;28;20193;-68
2022/12/28 01:13:14;;;;;;;2.10;2.00;;;;;;;;;;5093838;28;20187;-68
2022/12/28 01:15:41;;;;;;;4.47;2.03;;;;;;;;;;5093725;28;20219;-67
2022/12/28 01:18:08;;;;;;;3.73;2.17;;;;;;;;;;5093643;28;20282;-67
2022/12/28 01:20:35;;;;;;;6.43;2.63;;;;;;;;;;5093643;28;20443;-67
2022/12/28 01:23:03;;;;;;;2.53;1.80;;;;;;;;;;5093493;28;20283;-67
2022/12/28 01:25:30;;;;;;;4.23;2.10;;;;;;;;;;5093376;28;20549;-67
2022/12/28 01:27:58;;;;;;;2.43;2.23;;;;;;;;;;5093638;28;20544;-67
2022/12/28 01:30:24;;;;;;;3.60;2.20;;;;;;;;;;5093469;28;20456;-67
2022/12/28 01:32:51;;;;;;;3.15;2.40;;;;;;;;;;5092950;28;20536;-67
2022/12/28 01:35:18;;;;;;;4.57;1.85;;;;;;;;;;5093294;28;20241;-67
2022/12/28 01:37:45;;;;;;;3.53;2.42;;;;;;;;;;5093126;28;20717;-67
2022/12/28 01:40:15;;;;;;;2.92;2.67;;;;;;;;;;5093136;28;20203;-67
2022/12/28 01:42:42;;;;;;;4.88;2.55;;;;;;;;;;5093374;28;20282;-67
2022/12/28 01:45:16;;;;;;;6.38;2.65;;;;;;;;;;5093048;28;20574;-67
2022/12/28 01:47:43;;;;;;;5.88;2.70;;;;;;;;;;5093224;28;20192;-67
2022/12/28 01:50:11;;;;;;;2.97;2.20;;;;;;;;;;5093194;28;20187;-68
2022/12/28 01:52:40;;;;;;;5.80;2.55;;;;;;;;;;5093051;28;20540;-67
2022/12/28 01:55:09;;;;;;;2.70;1.83;;;;;;;;;;5092964;28;20713;-67
2022/12/28 01:57:39;;;;;;;2.63;2.03;;;;;;;;;;5093178;28;20535;-67
2022/12/28 02:00:08;;;;;;;2.53;2.33;;;;;;;;;;5093116;28;20287;-67
2022/12/28 02:02:35;;;;;;;4.85;2.63;;;;;;;;;;5093081;28;20559;-67
2022/12/28 02:05:02;;;;;;;6.70;2.75;;;;;;;;;;5092928;28;20191;-68
2022/12/28 02:07:35;;;;;;;7.37;2.50;;;;;;;;;;5093184;28;20278;-67
2022/12/28 02:10:03;;;;;;;4.57;2.75;;;;;;;;;;5092985;28;20547;-67
2022/12/28 02:12:30;;;;;;;3.47;2.10;;;;;;;;;;5093039;28;20302;-67
2022/12/28 02:14:58;;;;;;;3.60;2.00;;;;;;;;;;5092994;28;20615;-67
2022/12/28 02:17:25;;;;;;;4.40;2.35;;;;;;;;;;5092840;28;20287;-67
2022/12/28 02:19:52;;;;;;;3.10;2.40;;;;;;;;;;5093080;28;20278;-68
2022/12/28 02:22:28;;;;;;;3.85;2.30;;;;;;;;;;5092990;28;20282;-67
2022/12/28 02:25:04;;;;;;;3.88;2.60;;;;;;;;;;5092811;28;20646;-68
2022/12/28 02:27:37;;;;;;;2.55;2.15;;;;;;;;;;5092851;28;20195;-67
2022/12/28 02:30:07;;;;;;;6.65;2.30;;;;;;;;;;5092702;28;20198;-67
2022/12/28 02:32:43;;;;;;;4.40;2.13;;;;;;;;;;5092955;28;20217;-67
2022/12/28 02:35:13;;;;;;;6.43;2.13;;;;;;;;;;5092758;28;20277;-67
2022/12/28 02:37:43;;;;;;;3.42;2.80;;;;;;;;;;5092806;28;20279;-67
2022/12/28 02:40:13;;;;;;;4.50;2.00;;;;;;;;;;5092723;28;20278;-67
2022/12/28 02:42:40;;;;;;;3.38;3.08;;;;;;;;;;5092626;28;20191;-67
2022/12/28 02:51:01;;;;;;;3.30;2.00;;;;;;;;;;5096469;28;20199;-67
2022/12/28 02:53:42;;;;;;;5.93;2.80;;;;;;;;;;5096654;28;20556;-67
2022/12/28 02:56:12;;;;;;;3.45;2.13;;;;;;;;;;5096318;28;20223;-67
2022/12/28 02:58:55;;;;;;;2.83;2.20;;;;;;;;;;5096555;28;20184;-67
2022/12/28 03:01:28;;;;;;;10.02;3.42;;;;;;;;;;5096219;28;20192;-67
2022/12/28 03:04:03;;;;;;;2.57;2.20;;;;;;;;;;5096397;28;20195;-67
2022/12/28 03:09:25;;;;;;;4.38;2.40;;;;;;;;;;5096205;28;20202;-67
2022/12/28 03:11:54;;;;;;;5.22;2.67;;;;;;;;;;5095999;28;20187;-67
2022/12/28 03:14:24;;;;;;;4.43;2.75;;;;;;;;;;5096173;28;20202;-67
2022/12/28 03:31:06;;;;;;;3.17;2.50;;;;;;;;;;5095735;28;20561;-67
2022/12/28 03:33:35;;;;;;;3.85;2.35;;;;;;;;;;5095737;28;20194;-67
2022/12/28 03:36:04;;;;;;;3.10;2.38;;;;;;;;;;5095612;28;20227;-67
2022/12/28 03:38:36;;;;;;;2.90;2.60;;;;;;;;;;5095493;28;20199;-67
2022/12/28 03:41:06;;;;;;;3.13;2.45;;;;;;;;;;5095449;28;20279;-67
2022/12/28 03:43:42;;;;;;;2.60;2.20;;;;;;;;;;5095657;28;20191;-67
2022/12/28 03:46:13;;;;;;;4.88;2.20;;;;;;;;;;5095205;28;20224;-67
2022/12/28 03:48:42;;;;;;;2.90;2.22;;;;;;;;;;5095399;28;20201;-67
2022/12/28 03:51:09;;;;;;;5.82;2.42;;;;;;;;;;5095253;28;20290;-67
2022/12/28 03:53:39;;;;;;;5.63;2.47;;;;;;;;;;5095451;28;20195;-67
2022/12/28 03:56:10;;;;;;;4.13;2.35;;;;;;;;;;5095297;28;20308;-67
2022/12/28 03:58:37;;;;;;;3.17;2.80;;;;;;;;;;5095300;28;20730;-67
2022/12/28 04:01:04;;;;;;;3.33;2.05;;;;;;;;;;5095184;28;20195;-67
2022/12/28 04:03:31;;;;;;;3.17;2.03;;;;;;;;;;5095099;28;20530;-67
2022/12/28 04:06:00;;;;;;;4.30;2.10;;;;;;;;;;5094873;28;20680;-67
2022/12/28 04:08:27;;;;;;;4.55;2.17;;;;;;;;;;5095096;28;20198;-67
2022/12/28 04:10:54;;;;;;;2.60;2.00;;;;;;;;;;5094900;28;20218;-68
2022/12/28 04:13:21;;;;;;;4.50;2.42;;;;;;;;;;5094914;28;20302;-68
2022/12/28 04:15:55;;;;;;;3.25;2.20;;;;;;;;;;5094638;28;20195;-67
2022/12/28 04:18:22;;;;;;;4.68;2.30;;;;;;;;;;5094728;28;20276;-67
2022/12/28 04:20:49;;;;;;;3.50;1.85;;;;;;;;;;5094848;28;20544;-67
2022/12/28 04:23:18;;;;;;;1.85;1.75;;;;;;;;;;5094744;28;20192;-67
2022/12/28 04:25:45;;;;;;;2.65;1.70;;;;;;;;;;5094657;28;20282;-67
2022/12/28 04:28:11;;;;;;;6.75;2.40;;;;;;;;;;5094528;28;20195;-67
2022/12/28 04:30:38;;;;;;;5.13;2.22;;;;;;;;;;5094495;28;20282;-67
2022/12/28 04:33:05;;;;;;;3.25;2.25;;;;;;;;;;5094334;28;20205;-68
2022/12/28 04:35:32;;;;;;;5.15;1.80;;;;;;;;;;5094549;28;20287;-67
2022/12/28 04:37:59;;;;;;;4.25;1.80;;;;;;;;;;5094367;28;20219;-67
2022/12/28 04:40:28;;;;;;;2.28;1.70;;;;;;;;;;5094752;28;20548;-67
2022/12/28 04:42:55;;;;;;;3.58;1.88;;;;;;;;;;5094298;28;20192;-68
2022/12/28 04:45:21;;;;;;;3.92;2.20;;;;;;;;;;5093981;28;20221;-67
2022/12/28 04:47:48;;;;;;;3.15;1.73;;;;;;;;;;5094322;28;20195;-67
2022/12/28 04:50:15;;;;;;;2.83;1.55;;;;;;;;;;5094328;28;20738;-67
2022/12/28 04:52:42;;;;;;;3.78;1.95;;;;;;;;;;5094113;28;20282;-67
2022/12/28 04:55:11;;;;;;;3.50;1.93;;;;;;;;;;5094090;28;20283;-68
2022/12/28 04:57:40;;;;;;;2.38;1.40;;;;;;;;;;5093841;28;20906;-67
2022/12/28 05:00:07;;;;;;;3.72;1.20;;;;;;;;;;5093859;28;20294;-67
2022/12/28 05:02:34;;;;;;;4.32;1.70;;;;;;;;;;5094095;28;20711;-67
2022/12/28 05:05:01;;;;;;;2.45;1.60;;;;;;;;;;5093958;28;20286;-67
2022/12/28 05:07:28;;;;;;;3.80;1.67;;;;;;;;;;5093122;28;20187;-67
2022/12/28 05:09:55;;;;;;;1.63;1.30;;;;;;;;;;5093799;28;20200;-67
2022/12/28 05:12:22;;;;;;;1.85;1.60;;;;;;;;;;5093739;28;20195;-68
2022/12/28 05:14:51;;;;;;;4.30;2.00;;;;;;;;;;5093673;28;20202;-67
2022/12/28 05:17:18;;;;;;;3.28;1.67;;;;;;;;;;5093660;28;20304;-67
2022/12/28 05:19:45;;;;;;;1.90;1.60;;;;;;;;;;5093579;28;20718;-67
2022/12/28 05:22:14;;;;;;;3.78;1.85;;;;;;;;;;5093601;28;20455;-68
2022/12/28 05:24:41;;;;;;;4.35;1.60;;;;;;;;;;5093434;28;20194;-67
2022/12/28 05:27:08;;;;;;;1.70;1.35;;;;;;;;;;5093389;28;20278;-67
2022/12/28 05:29:35;;;;;;;4.55;1.55;;;;;;;;;;5093634;28;20221;-67
2022/12/28 05:32:03;;;;;;;4.38;1.52;;;;;;;;;;5093560;28;20191;-68
2022/12/28 05:34:30;;;;;;;5.50;1.70;;;;;;;;;;5093258;28;20715;-67
2022/12/28 05:36:57;;;;;;;4.20;1.67;;;;;;;;;;5093309;28;20293;-67
2022/12/28 05:39:24;;;;;;;1.90;1.27;;;;;;;;;;5093308;28;20616;-67
2022/12/28 05:41:51;;;;;;;5.65;1.73;;;;;;;;;;5093191;28;20596;-67
2022/12/28 05:44:18;;;;;;;2.97;1.30;;;;;;;;;;5093144;28;20315;-67
2022/12/28 05:46:44;;;;;;;2.35;1.17;;;;;;;;;;5093293;28;20200;-68
2022/12/28 05:49:13;;;;;;;5.00;1.88;;;;;;;;;;5093295;28;20285;-67
2022/12/28 05:51:40;;;;;;;4.22;1.70;;;;;;;;;;5093197;28;20282;-67
2022/12/28 05:54:07;;;;;;;4.43;1.67;;;;;;;;;;5093076;28;20658;-67
2022/12/28 05:56:34;;;;;;;3.95;1.40;;;;;;;;;;5093177;28;20222;-67
2022/12/28 05:59:02;;;;;;;2.45;1.42;;;;;;;;;;5093259;28;20298;-68
2022/12/28 06:01:30;;;;;;;3.42;1.85;;;;;;;;;;5093344;28;20188;-67
2022/12/28 06:03:58;;;;;;;5.90;1.60;;;;;;;;;;5093039;28;20193;-67
2022/12/28 06:06:27;;;;;;;1.60;1.50;;;;;;;;;;5093002;28;20459;-67
2022/12/28 06:08:54;;;;;;;2.90;2.10;;;;;;;;;;5092797;28;20449;-67
2022/12/28 06:11:21;;;;;;;1.70;1.38;;;;;;;;;;5093076;28;20194;-67
2022/12/28 06:13:48;;;;;;;2.95;1.65;;;;;;;;;;5093019;28;20190;-67
2022/12/28 06:16:16;;;;;;;3.13;1.55;;;;;;;;;;5092848;28;20198;-67
2022/12/28 06:18:44;;;;;;;2.70;1.73;;;;;;;;;;5094608;28;20301;-67
2022/12/28 06:21:14;;;;;;;4.90;2.15;;;;;;;;;;5096912;28;20449;-67
2022/12/28 06:23:43;;;;;;;3.38;1.40;;;;;;;;;;5096900;28;20677;-67
2022/12/28 06:26:12;;;;;;;2.20;1.30;;;;;;;;;;5096978;28;20195;-67
2022/12/28 06:28:39;;;;;;;4.57;2.67;;;;;;;;;;5096948;28;20195;-67
2022/12/28 06:31:06;;;;;;;4.18;1.65;;;;;;;;;;5096880;28;20199;-67
2022/12/28 06:33:34;;;;;;;2.67;1.52;;;;;;;;;;5096771;28;20187;-67
2022/12/28 06:36:01;;;;;;;2.65;1.95;;;;;;;;;;5096568;28;20292;-67
2022/12/28 06:38:31;;;;;;;1.60;1.50;;;;;;;;;;5096733;28;20214;-67
2022/12/28 06:41:03;;;;;;;2.27;1.90;;;;;;;;;;5096556;28;20677;-67
2022/12/28 06:43:31;;;;;;;1.67;1.33;;;;;;;;;;5096651;28;20452;-67
2022/12/28 06:45:58;;;;;;;1.75;1.65;;;;;;;;;;5096341;28;20675;-67
2022/12/28 06:48:25;;;;;;;4.50;1.47;;;;;;;;;;5096403;28;20203;-68
2022/12/28 06:50:56;;;;;;;5.37;1.83;;;;;;;;;;5096589;28;20857;-68
2022/12/28 06:53:23;;;;;;;6.03;1.50;;;;;;;;;;5096493;28;20963;-67
2022/12/28 06:55:54;;;;;;;2.10;1.40;;;;;;;;;;5096433;28;20480;-68
2022/12/28 06:58:22;;;;;;;5.23;1.43;;;;;;;;;;5096317;28;20563;-68
2022/12/28 07:00:49;;;;;;;2.67;1.83;;;;;;;;;;5096134;28;20459;-68
2022/12/28 07:03:16;;;;;;;5.22;2.10;;;;;;;;;;5096330;28;20449;-68
2022/12/28 07:05:43;;;;;;;6.17;1.63;;;;;;;;;;5095947;28;20672;-68
2022/12/28 07:08:11;;;;;;;3.45;1.85;;;;;;;;;;5096121;28;20453;-68
2022/12/28 07:10:38;;;;;;;2.28;1.60;;;;;;;;;;5096025;28;20278;-67
2022/12/28 07:13:05;;;;;;;6.23;1.63;;;;;;;;;;5096007;28;20192;-67
2022/12/28 07:15:35;;;;;;;5.13;1.47;;;;;;;;;;5095901;28;21007;-67
2022/12/28 07:18:02;;;;;;;7.20;2.00;;;;;;;;;;5095999;28;20481;-67
2022/12/28 07:20:29;;;;;;;6.10;2.30;;;;;;;;;;5095931;28;20192;-68
2022/12/28 07:22:56;;;;;;;5.43;2.30;;;;;;;;;;5095844;28;20344;-67
2022/12/28 07:25:23;;;;;;;2.30;2.10;;;;;;;;;;5095789;28;20245;-67
2022/12/28 07:27:49;;;;;;;7.18;1.95;;;;;;;;;;5095686;28;20187;-67
2022/12/28 07:30:16;;;;;;;2.53;1.63;;;;;;;;;;5094993;28;20192;-67
2022/12/28 07:32:45;;;;;;;2.13;1.92;;;;;;;;;;5095783;28;20537;-68
2022/12/28 07:35:12;;;;;;;2.40;2.20;;;;;;;;;;5095430;28;20679;-67
2022/12/28 07:37:39;;;;;;;3.08;2.10;;;;;;;;;;5095545;28;20226;-68
2022/12/28 07:40:06;;;;;;;5.00;1.85;;;;;;;;;;5095464;28;20194;-68
2022/12/28 07:42:33;;;;;;;5.13;1.97;;;;;;;;;;5095267;28;20195;-67
2022/12/28 07:45:00;;;;;;;8.05;1.90;;;;;;;;;;5095336;28;20477;-67
2022/12/28 07:47:27;;;;;;;3.38;1.70;;;;;;;;;;5095300;28;20231;-68
2022/12/28 07:49:55;;;;;;;6.50;2.10;;;;;;;;;;5095041;28;20741;-68
2022/12/28 07:52:22;;;;;;;7.55;2.10;;;;;;;;;;5095311;28;20187;-68
2022/12/28 07:54:49;;;;;;;3.85;1.90;;;;;;;;;;5095107;28;20187;-67
2022/12/28 07:57:16;;;;;;;2.90;1.90;;;;;;;;;;5095000;28;20216;-67
2022/12/28 07:59:43;;;;;;;4.07;1.63;;;;;;;;;;5095159;28;20187;-67
2022/12/28 08:02:10;;;;;;;3.60;1.60;;;;;;;;;;5095155;28;20456;-67
2022/12/28 08:04:37;;;;;;;2.47;2.07;;;;;;;;;;5094952;28;20455;-67
2022/12/28 08:07:05;;;;;;;1.40;1.30;;;;;;;;;;5095034;28;20544;-67
2022/12/28 08:09:32;;;;;;;4.03;2.37;;;;;;;;;;5094724;28;20445;-67
2022/12/28 08:11:59;;;;;;;3.20;2.07;;;;;;;;;;5094977;28;20454;-67
2022/12/28 08:14:26;;;;;;;5.20;1.70;;;;;;;;;;5094906;28;20886;-67
2022/12/28 08:16:53;;;;;;;4.53;2.03;;;;;;;;;;5094572;28;20987;-68
2022/12/28 08:19:20;;;;;;;4.83;1.50;;;;;;;;;;5094590;28;20454;-67
2022/12/28 08:21:47;;;;;;;8.33;2.20;;;;;;;;;;5094567;28;20456;-67
2022/12/28 08:24:17;;;;;;;1.93;1.80;;;;;;;;;;5094431;28;20488;-67
2022/12/28 08:26:44;;;;;;;4.33;2.30;;;;;;;;;;5094743;28;20544;-68
2022/12/28 08:29:12;;;;;;;3.30;1.83;;;;;;;;;;5094597;28;20502;-68
2022/12/28 08:31:40;;;;;;;2.30;2.07;;;;;;;;;;5094503;28;20454;-67
2022/12/28 08:34:08;;;;;;;5.90;2.50;;;;;;;;;;5094492;28;20476;-67
2022/12/28 08:36:35;;;;;;;5.90;2.40;;;;;;;;;;5094092;28;20441;-67
2022/12/28 08:39:02;;;;;;;2.17;1.97;;;;;;;;;;5093982;28;20708;-67
2022/12/28 08:41:31;;;;;;;2.00;1.60;;;;;;;;;;5094263;28;20541;-67
2022/12/28 08:43:58;;;;;;;2.30;2.07;;;;;;;;;;5094136;28;20188;-68
2022/12/28 08:46:26;;;;;;;4.70;2.00;;;;;;;;;;5093787;28;20867;-68
2022/12/28 08:48:54;;;;;;;2.10;1.70;;;;;;;;;;5094032;28;20632;-67
2022/12/28 08:51:22;;;;;;;1.67;1.57;;;;;;;;;;5093801;28;20545;-67
2022/12/28 08:53:49;;;;;;;8.77;2.33;;;;;;;;;;5094068;28;20765;-67
2022/12/28 08:56:17;;;;;;;3.23;1.90;;;;;;;;;;5094115;28;20878;-68
2022/12/28 08:58:45;;;;;;;2.50;1.60;;;;;;;;;;5093654;28;21030;-68
2022/12/28 09:01:13;;;;;;;3.03;1.90;;;;;;;;;;5093954;28;20556;-68
2022/12/28 09:03:41;;;;;;;2.60;2.10;;;;;;;;;;5093684;28;20881;-68
2022/12/28 09:06:10;;;;;;;5.63;2.10;;;;;;;;;;5093970;28;20544;-68
2022/12/28 09:08:37;;;;;;;4.20;2.07;;;;;;;;;;5093917;28;20548;-67
2022/12/28 09:11:06;;;;;;;2.43;1.67;;;;;;;;;;5093771;28;20541;-67
2022/12/28 09:13:33;;;;;;;2.07;1.87;;;;;;;;;;5093741;28;20546;-67
2022/12/28 09:16:02;;;;;;;9.03;2.50;;;;;;;;;;5093498;28;20887;-67
2022/12/28 09:18:29;;;;;;;1.57;1.47;;;;;;;;;;5093434;28;20933;-67
2022/12/28 09:20:56;;;;;;;4.37;1.50;;;;;;;;;;5093498;28;20540;-67
2022/12/28 09:23:23;;;;;;;2.03;1.45;;;;;;;;;;5093674;28;20540;-67
2022/12/28 09:25:50;;;;;;;1.80;1.70;;;;;;;;;;5093581;28;20275;-68
2022/12/28 09:28:17;;;;;;;2.30;1.73;;;;;;;;;;5093409;28;20550;-67
2022/12/28 09:30:44;;;;;;;3.30;2.28;;;;;;;;;;5093184;28;20541;-67
2022/12/28 09:35:58;;;;;;;2.83;1.77;;;;;;;;;;5093086;28;20495;-67
2022/12/28 09:38:25;;;;;;;3.57;2.00;;;;;;;;;;5093239;28;20479;-67
2022/12/28 09:40:52;;;;;;;1.93;1.83;;;;;;;;;;5093255;28;20453;-67
2022/12/28 09:43:19;;;;;;;3.47;3.23;;;;;;;;;;5093136;28;20454;-67
2022/12/28 09:45:47;;;;;;;4.07;2.63;;;;;;;;;;5093090;28;20477;-67
2022/12/28 09:48:17;;;;;;;3.53;3.23;;;;;;;;;;5093219;28;20550;-67
2022/12/28 09:50:44;;;;;;;2.13;1.93;;;;;;;;;;5093150;28;20447;-67
2022/12/28 09:53:23;;;;;;;2.20;1.70;;;;;;;;;;5092530;28;20543;-68
2022/12/28 09:55:57;;;;;;;2.10;1.57;;;;;;;;;;5092871;28;20454;-67
2022/12/28 09:58:24;;;;;;;3.97;2.70;;;;;;;;;;5093188;28;20577;-67
2022/12/28 10:00:53;;;;;;;2.57;1.93;;;;;;;;;;5093011;28;20446;-67
2022/12/28 10:03:25;;;;;;;1.93;1.70;;;;;;;;;;5093006;28;20541;-67
2022/12/28 10:05:52;;;;;;;1.77;1.63;;;;;;;;;;5092949;28;20454;-67
2022/12/28 10:08:21;;;;;;;4.93;2.10;;;;;;;;;;5092808;28;20541;-67
2022/12/28 10:10:48;;;;;;;2.63;1.97;;;;;;;;;;5093045;28;20446;-67
2022/12/28 10:13:17;;;;;;;3.70;1.90;;;;;;;;;;5092827;28;20473;-67
2022/12/28 10:15:44;;;;;;;3.40;2.50;;;;;;;;;;5092844;28;20451;-67
2022/12/28 10:18:12;;;;;;;2.90;2.07;;;;;;;;;;5092822;28;21020;-67
2022/12/28 10:20:41;;;;;;;2.90;1.60;;;;;;;;;;5092777;28;20877;-67
2022/12/28 10:23:08;;;;;;;3.53;1.90;;;;;;;;;;5092716;28;20455;-68
2022/12/28 10:25:35;;;;;;;3.07;1.97;;;;;;;;;;5092797;28;20546;-67
2022/12/28 10:28:02;;;;;;;2.57;2.07;;;;;;;;;;5092748;28;20809;-67
2022/12/28 10:30:29;;;;;;;1.93;1.83;;;;;;;;;;5092848;28;20542;-67
2022/12/28 10:32:57;;;;;;;4.40;1.90;;;;;;;;;;5092702;28;20499;-67
2022/12/28 10:35:25;;;;;;;4.33;2.53;;;;;;;;;;5092529;28;20900;-67
2022/12/28 10:37:56;;;;;;;2.50;1.80;;;;;;;;;;5092743;28;20925;-67
2022/12/28 10:40:25;;;;;;;2.50;1.73;;;;;;;;;;5092705;28;20557;-67
2022/12/28 10:42:53;;;;;;;2.13;1.93;;;;;;;;;;5092554;28;20508;-67
2022/12/28 10:45:22;;;;;;;3.50;1.83;;;;;;;;;;5092386;28;20493;-67
2022/12/28 10:47:50;;;;;;;1.93;1.80;;;;;;;;;;5092702;28;20449;-67
2022/12/28 10:50:38;;;;;;;1.80;1.70;;;;;;;;;;5092842;28;20482;-67
2022/12/28 10:53:16;;;;;;;2.50;1.70;;;;;;;;;;5092559;28;20450;-67
2022/12/28 10:55:43;;;;;;;2.10;1.90;;;;;;;;;;5092356;28;20540;-67
2022/12/28 10:58:17;;;;;;;4.50;2.20;;;;;;;;;;5092383;28;20511;-68
2022/12/28 11:00:53;;;;;;;1.77;1.67;;;;;;;;;;5092550;28;20539;-67
2022/12/28 11:03:24;;;;;;;3.80;2.30;;;;;;;;;;5092256;28;20454;-67
2022/12/28 11:05:51;;;;;;;2.10;1.97;;;;;;;;;;5093737;28;20460;-67
2022/12/28 11:08:19;;;;;;;2.13;1.80;;;;;;;;;;5096017;28;20450;-68
2022/12/28 11:10:46;;;;;;;1.63;1.47;;;;;;;;;;5095915;28;20550;-67
2022/12/28 11:13:19;;;;;;;2.53;2.33;;;;;;;;;;5095876;28;21036;-67
2022/12/28 11:15:46;;;;;;;7.20;1.97;;;;;;;;;;5095898;28;20541;-67
2022/12/28 11:18:15;;;;;;;3.90;1.83;;;;;;;;;;5095880;28;20592;-67
2022/12/28 11:20:43;;;;;;;1.90;1.70;;;;;;;;;;5095709;28;20462;-67
2022/12/28 11:23:15;;;;;;;6.00;1.97;;;;;;;;;;5095672;28;20451;-67
2022/12/28 11:25:43;;;;;;;2.07;1.97;;;;;;;;;;5095593;28;20545;-67
2022/12/28 11:28:15;;;;;;;1.83;1.73;;;;;;;;;;5095752;28;20457;-67
2022/12/28 11:30:42;;;;;;;4.50;2.10;;;;;;;;;;5095664;28;20451;-67
2022/12/28 11:33:22;;;;;;;2.73;2.50;;;;;;;;;;5095521;28;20450;-67
2022/12/28 11:35:50;;;;;;;2.03;1.90;;;;;;;;;;5095362;28;20539;-67
2022/12/28 11:38:32;;;;;;;2.00;1.80;;;;;;;;;;5095455;28;20478;-67
2022/12/28 11:41:00;;;;;;;1.50;1.40;;;;;;;;;;5095231;28;20530;-67
2022/12/28 11:43:49;;;;;;;2.17;2.00;;;;;;;;;;5095397;28;21024;-67
2022/12/28 11:46:37;;;;;;;2.00;1.80;;;;;;;;;;5095284;28;20889;-68
2022/12/28 11:49:05;;;;;;;3.20;2.17;;;;;;;;;;5095422;28;20507;-67
2022/12/28 11:51:32;;;;;;;2.20;1.97;;;;;;;;;;5095317;28;20533;-67
2022/12/28 11:54:00;;;;;;;1.90;1.53;;;;;;;;;;5095159;28;20545;-67
2022/12/28 11:56:49;;;;;;;2.60;1.90;;;;;;;;;;5095080;28;20458;-67
2022/12/28 11:59:25;;;;;;;3.33;1.83;;;;;;;;;;5094754;28;20832;-67
2022/12/28 12:01:53;;;;;;;2.37;1.63;;;;;;;;;;5095160;28;20873;-68
2022/12/28 12:04:27;;;;;;;2.40;1.90;;;;;;;;;;5094961;28;20542;-67
2022/12/28 12:07:07;;;;;;;2.07;1.93;;;;;;;;;;5094711;28;20453;-67
2022/12/28 12:09:42;;;;;;;2.60;1.87;;;;;;;;;;5095026;28;20535;-67
2022/12/28 12:12:24;;;;;;;2.27;1.77;;;;;;;;;;5095016;28;20783;-68
2022/12/28 12:14:55;;;;;;;1.97;1.87;;;;;;;;;;5094576;28;20451;-67
2022/12/28 12:17:33;;;;;;;2.33;2.00;;;;;;;;;;5094279;28;20541;-68
2022/12/28 12:20:02;;;;;;;4.27;1.97;;;;;;;;;;5094949;28;20826;-67
2022/12/28 12:22:30;;;;;;;6.60;2.00;;;;;;;;;;5094792;28;21021;-67
2022/12/28 12:24:58;;;;;;;3.27;2.30;;;;;;;;;;5094368;28;20470;-67
2022/12/28 12:27:32;;;;;;;1.73;1.63;;;;;;;;;;5094528;28;20447;-67
2022/12/28 12:30:02;;;;;;;2.40;2.03;;;;;;;;;;5094348;28;20451;-67
2022/12/28 12:32:34;;;;;;;2.57;1.97;;;;;;;;;;5094579;28;20534;-67
2022/12/28 12:35:03;;;;;;;4.43;2.50;;;;;;;;;;5094467;28;20806;-67
2022/12/28 12:37:39;;;;;;;1.90;1.73;;;;;;;;;;5094419;28;20518;-67
2022/12/28 12:40:20;;;;;;;2.50;2.20;;;;;;;;;;5094224;28;20573;-67
2022/12/28 12:42:54;;;;;;;3.73;2.20;;;;;;;;;;5094455;28;20442;-67
2022/12/28 12:45:25;;;;;;;2.30;2.10;;;;;;;;;;5094141;28;20565;-67
2022/12/28 12:47:59;;;;;;;2.50;2.30;;;;;;;;;;5094249;28;20537;-67
2022/12/28 12:50:32;;;;;;;5.90;1.80;;;;;;;;;;5094281;28;20451;-67
2022/12/28 12:53:05;;;;;;;3.07;2.33;;;;;;;;;;5093853;28;20529;-67
2022/12/28 12:55:44;;;;;;;2.17;1.97;;;;;;;;;;5094210;28;20469;-67
2022/12/28 12:58:16;;;;;;;1.97;1.70;;;;;;;;;;5094072;28;20530;-67
2022/12/28 13:00:48;;;;;;;5.03;1.90;;;;;;;;;;5093882;28;20900;-67
2022/12/28 13:03:20;;;;;;;2.30;2.10;;;;;;;;;;5094383;28;20874;-67
2022/12/28 13:05:50;;;;;;;2.60;2.40;;;;;;;;;;5094052;28;20546;-67
2022/12/28 13:08:21;;;;;;;3.07;2.60;;;;;;;;;;5093842;28;20546;-67
2022/12/28 13:10:48;;;;;;;2.40;2.07;;;;;;;;;;5093755;28;20886;-67
2022/12/28 13:13:19;;;;;;;1.70;1.60;;;;;;;;;;5093701;28;20535;-67
2022/12/28 13:15:48;;;;;;;2.60;1.97;;;;;;;;;;5093582;28;20537;-67
2022/12/28 13:18:17;;;;;;;2.00;1.90;;;;;;;;;;5093905;28;20542;-67
2022/12/28 13:20:52;;;;;;;4.10;1.60;;;;;;;;;;5093566;28;20833;-67
2022/12/28 13:23:20;;;;;;;2.00;1.80;;;;;;;;;;5093663;28;20537;-67
2022/12/28 13:25:49;;;;;;;2.30;2.10;;;;;;;;;;5093463;28;20533;-67
2022/12/28 13:28:20;;;;;;;4.00;2.30;;;;;;;;;;5092637;28;20526;-67
2022/12/28 13:30:57;;;;;;;1.63;1.50;;;;;;;;;;5093767;28;20849;-67
2022/12/28 13:33:25;;;;;;;2.53;1.83;;;;;;;;;;5093658;28;20446;-67
2022/12/28 13:36:04;;;;;;;3.40;1.73;;;;;;;;;;5093274;28;20454;-67
2022/12/28 13:38:31;;;;;;;2.33;1.90;;;;;;;;;;5093164;28;20572;-67
2022/12/28 13:40:58;;;;;;;3.93;1.67;;;;;;;;;;5093129;28;20446;-67
2022/12/28 13:43:37;;;;;;;3.10;2.13;;;;;;;;;;5093288;28;21031;-67
2022/12/28 13:46:08;;;;;;;6.27;2.30;;;;;;;;;;5093192;28;21015;-67
2022/12/28 13:48:37;;;;;;;1.80;1.70;;;;;;;;;;5093094;28;20799;-67
2022/12/28 13:51:04;;;;;;;2.03;1.90;;;;;;;;;;5093078;28;20542;-67
2022/12/28 13:53:32;;;;;;;2.53;2.33;;;;;;;;;;5092969;28;20548;-67
2022/12/28 13:56:01;;;;;;;2.00;1.80;;;;;;;;;;5093280;28;20443;-67
2022/12/28 13:58:30;;;;;;;2.30;2.10;;;;;;;;;;5093035;28;20534;-67
2022/12/28 14:00:59;;;;;;;2.13;1.93;;;;;;;;;;5092877;28;20567;-67
2022/12/28 14:03:27;;;;;;;2.17;1.97;;;;;;;;;;5093008;28;20447;-67
2022/12/28 14:05:58;;;;;;;2.60;1.83;;;;;;;;;;5092841;28;20477;-67
2022/12/28 14:08:26;;;;;;;4.07;2.13;;;;;;;;;;5092946;28;20958;-67
2022/12/28 14:10:53;;;;;;;1.93;1.73;;;;;;;;;;5092941;28;20461;-67
2022/12/28 14:13:20;;;;;;;1.77;1.67;;;;;;;;;;5092812;28;20454;-67
2022/12/28 14:15:48;;;;;;;1.90;1.80;;;;;;;;;;5092829;28;20537;-67
2022/12/28 14:18:15;;;;;;;2.07;1.87;;;;;;;;;;5092738;28;20476;-67
2022/12/28 14:20:50;;;;;;;2.20;2.00;;;;;;;;;;5092809;28;20485;-67
2022/12/28 14:23:21;;;;;;;3.60;2.17;;;;;;;;;;5092882;28;20537;-67
2022/12/28 14:25:48;;;;;;;2.17;1.97;;;;;;;;;;5092804;28;20451;-67
2022/12/28 14:28:19;;;;;;;1.80;1.70;;;;;;;;;;5092647;28;21008;-67
2022/12/28 14:30:51;;;;;;;3.17;2.27;;;;;;;;;;5092572;28;20990;-67
2022/12/28 14:33:20;;;;;;;1.87;1.70;;;;;;;;;;5092985;28;20459;-67
2022/12/28 14:35:50;;;;;;;4.63;2.43;;;;;;;;;;5092660;28;20557;-67
2022/12/28 14:38:18;;;;;;;2.80;2.10;;;;;;;;;;5092538;28;20449;-67
2022/12/28 14:40:52;;;;;;;2.50;1.80;;;;;;;;;;5095440;28;20479;-67
2022/12/28 14:43:23;;;;;;;2.10;1.87;;;;;;;;;;5096384;28;20542;-67
2022/12/28 14:45:50;;;;;;;2.70;2.50;;;;;;;;;;5096427;28;20561;-67
2022/12/28 14:48:25;;;;;;;2.27;1.73;;;;;;;;;;5096650;28;20520;-67
2022/12/28 14:50:57;;;;;;;2.03;1.80;;;;;;;;;;5096480;28;20540;-67
2022/12/28 14:53:24;;;;;;;2.00;1.80;;;;;;;;;;5096357;28;20492;-67
2022/12/28 14:55:59;;;;;;;3.17;2.30;;;;;;;;;;5096441;28;20954;-67
2022/12/28 14:58:28;;;;;;;1.87;1.77;;;;;;;;;;5096393;28;20530;-67
2022/12/28 15:00:57;;;;;;;2.80;2.17;;;;;;;;;;5096191;28;20474;-67
2022/12/28 15:03:27;;;;;;;2.90;2.10;;;;;;;;;;5096027;28;20466;-67
2022/12/28 15:05:55;;;;;;;5.83;2.10;;;;;;;;;;5096143;28;20500;-67
2022/12/28 15:08:23;;;;;;;1.70;1.60;;;;;;;;;;5095999;28;20758;-67
2022/12/28 15:10:52;;;;;;;3.20;2.20;;;;;;;;;;5096203;28;21010;-67
2022/12/28 15:13:19;;;;;;;1.73;1.63;;;;;;;;;;5096097;28;20454;-67
2022/12/28 15:15:53;;;;;;;1.90;1.80;;;;;;;;;;5095960;28;20450;-67
2022/12/28 15:18:20;;;;;;;4.30;1.70;;;;;;;;;;5095910;28;20462;-67
2022/12/28 15:20:47;;;;;;;2.43;1.73;;;;;;;;;;5095628;28;20591;-67